sensor_id;sensor_type;location;lat;lon;timestamp;pressure;altitude;pressure_sealevel;temperature;humidity
77770;BME280;66961;51.482;9.160;2023-12-22T00:00:53;97442.34;;;4.30;86.66
77770;BME280;66961;51.482;9.160;2023-12-22T00:03:18;97444.44;;;4.35;85.97
77770;BME280;66961;51.482;9.160;2023-12-22T00:05:44;97434.22;;;4.25;87.37
77770;BME280;66961;51.482;9.160;2023-12-22T00:08:09;97434.03;;;4.42;86.22
77770;BME280;66961;51.482;9.160;2023-12-22T00:10:35;97419.03;;;4.36;87.49
77770;BME280;66961;51.482;9.160;2023-12-22T00:13:00;97423.91;;;4.39;87.80
77770;BME280;66961;51.482;9.160;2023-12-22T00:15:25;97425.81;;;4.45;86.73
77770;BME280;66961;51.482;9.160;2023-12-22T00:17:50;97394.25;;;4.53;85.59
77770;BME280;66961;51.482;9.160;2023-12-22T00:20:16;97405.97;;;4.72;84.95
77770;BME280;66961;51.482;9.160;2023-12-22T00:22:41;97399.91;;;4.71;84.79
77770;BME280;66961;51.482;9.160;2023-12-22T00:25:06;97420.34;;;4.76;85.15
77770;BME280;66961;51.482;9.160;2023-12-22T00:27:32;97401.88;;;4.84;84.56
77770;BME280;66961;51.482;9.160;2023-12-22T00:29:57;97416.00;;;4.83;84.70
77770;BME280;66961;51.482;9.160;2023-12-22T00:32:22;97423.41;;;4.79;86.66
77770;BME280;66961;51.482;9.160;2023-12-22T00:34:47;97408.53;;;4.65;88.08
77770;BME280;66961;51.482;9.160;2023-12-22T00:37:13;97477.72;;;4.49;91.04
77770;BME280;66961;51.482;9.160;2023-12-22T00:39:38;97441.44;;;4.38;92.75
77770;BME280;66961;51.482;9.160;2023-12-22T00:42:03;97444.16;;;4.15;96.12
77770;BME280;66961;51.482;9.160;2023-12-22T00:44:29;97468.91;;;3.98;98.88
77770;BME280;66961;51.482;9.160;2023-12-22T00:46:54;97460.03;;;3.99;99.18
77770;BME280;66961;51.482;9.160;2023-12-22T00:49:19;97454.38;;;4.10;94.70
77770;BME280;66961;51.482;9.160;2023-12-22T00:51:45;97447.97;;;4.13;94.80
77770;BME280;66961;51.482;9.160;2023-12-22T00:54:10;97470.53;;;3.99;95.84
77770;BME280;66961;51.482;9.160;2023-12-22T00:56:35;97466.28;;;3.98;95.68
77770;BME280;66961;51.482;9.160;2023-12-22T00:59:00;97455.69;;;3.91;95.79
77770;BME280;66961;51.482;9.160;2023-12-22T01:01:26;97462.44;;;3.86;95.74
77770;BME280;66961;51.482;9.160;2023-12-22T01:03:51;97451.22;;;4.15;90.50
77770;BME280;66961;51.482;9.160;2023-12-22T01:06:16;97437.81;;;4.10;90.02
77770;BME280;66961;51.482;9.160;2023-12-22T01:08:41;97471.81;;;4.03;89.91
77770;BME280;66961;51.482;9.160;2023-12-22T01:11:07;97468.75;;;4.14;87.91
77770;BME280;66961;51.482;9.160;2023-12-22T01:13:32;97461.69;;;4.15;87.81
77770;BME280;66961;51.482;9.160;2023-12-22T01:15:57;97493.78;;;4.17;87.26
77770;BME280;66961;51.482;9.160;2023-12-22T01:18:23;97479.50;;;4.19;86.48
77770;BME280;66961;51.482;9.160;2023-12-22T01:20:48;97461.94;;;4.20;87.53
77770;BME280;66961;51.482;9.160;2023-12-22T01:23:13;97454.66;;;4.15;87.96
77770;BME280;66961;51.482;9.160;2023-12-22T01:25:38;97442.88;;;3.96;89.52
77770;BME280;66961;51.482;9.160;2023-12-22T01:28:04;97455.38;;;4.09;88.87
77770;BME280;66961;51.482;9.160;2023-12-22T01:30:29;97479.78;;;4.24;87.28
77770;BME280;66961;51.482;9.160;2023-12-22T01:32:55;97458.63;;;4.26;87.07
77770;BME280;66961;51.482;9.160;2023-12-22T01:35:20;97471.19;;;4.30;87.68
77770;BME280;66961;51.482;9.160;2023-12-22T01:37:45;97458.19;;;4.37;85.66
77770;BME280;66961;51.482;9.160;2023-12-22T01:40:10;97468.22;;;4.33;86.79
77770;BME280;66961;51.482;9.160;2023-12-22T01:42:36;97481.16;;;4.35;86.07
77770;BME280;66961;51.482;9.160;2023-12-22T01:45:01;97477.28;;;4.46;83.38
77770;BME280;66961;51.482;9.160;2023-12-22T01:47:26;97477.81;;;4.41;85.37
77770;BME280;66961;51.482;9.160;2023-12-22T01:49:52;97458.28;;;4.44;85.01
77770;BME280;66961;51.482;9.160;2023-12-22T01:52:18;97483.78;;;4.50;84.99
77770;BME280;66961;51.482;9.160;2023-12-22T01:54:44;97476.28;;;4.47;85.05
77770;BME280;66961;51.482;9.160;2023-12-22T01:57:11;97491.84;;;4.48;85.08
77770;BME280;66961;51.482;9.160;2023-12-22T01:59:38;97471.75;;;4.55;85.17
77770;BME280;66961;51.482;9.160;2023-12-22T02:02:04;97480.53;;;4.48;86.28
77770;BME280;66961;51.482;9.160;2023-12-22T02:04:30;97501.88;;;4.45;87.97
77770;BME280;66961;51.482;9.160;2023-12-22T02:07:01;97497.47;;;4.08;92.86
77770;BME280;66961;51.482;9.160;2023-12-22T02:09:26;97495.56;;;3.79;96.58
77770;BME280;66961;51.482;9.160;2023-12-22T02:11:52;97489.50;;;3.63;98.18
77770;BME280;66961;51.482;9.160;2023-12-22T02:14:17;97502.28;;;3.58;98.36
77770;BME280;66961;51.482;9.160;2023-12-22T02:16:46;97501.19;;;3.53;99.79
77770;BME280;66961;51.482;9.160;2023-12-22T02:22:04;97504.28;;;3.56;98.78
77770;BME280;66961;51.482;9.160;2023-12-22T02:24:30;97485.31;;;3.69;96.87
77770;BME280;66961;51.482;9.160;2023-12-22T02:27:04;97484.44;;;3.77;94.15
77770;BME280;66961;51.482;9.160;2023-12-22T02:29:32;97438.53;;;3.66;96.40
77770;BME280;66961;51.482;9.160;2023-12-22T02:32:02;97476.25;;;3.80;93.52
77770;BME280;66961;51.482;9.160;2023-12-22T02:34:35;97477.88;;;3.81;93.04
77770;BME280;66961;51.482;9.160;2023-12-22T02:37:07;97482.25;;;3.88;92.24
77770;BME280;66961;51.482;9.160;2023-12-22T02:39:32;97484.34;;;3.93;92.33
77770;BME280;66961;51.482;9.160;2023-12-22T02:41:59;97489.47;;;3.86;93.23
77770;BME280;66961;51.482;9.160;2023-12-22T02:44:24;97473.34;;;3.75;94.74
77770;BME280;66961;51.482;9.160;2023-12-22T02:46:50;97465.31;;;3.76;93.75
77770;BME280;66961;51.482;9.160;2023-12-22T02:49:15;97477.41;;;3.77;94.33
77770;BME280;66961;51.482;9.160;2023-12-22T02:51:41;97458.13;;;3.93;90.87
77770;BME280;66961;51.482;9.160;2023-12-22T02:54:06;97443.84;;;3.95;91.32
77770;BME280;66961;51.482;9.160;2023-12-22T02:56:31;97486.59;;;3.96;91.02
77770;BME280;66961;51.482;9.160;2023-12-22T02:58:56;97491.66;;;3.97;91.34
77770;BME280;66961;51.482;9.160;2023-12-22T03:01:22;97520.97;;;4.01;88.96
77770;BME280;66961;51.482;9.160;2023-12-22T03:03:47;97467.84;;;4.07;86.25
77770;BME280;66961;51.482;9.160;2023-12-22T03:06:12;97469.63;;;4.21;85.13
77770;BME280;66961;51.482;9.160;2023-12-22T03:08:37;97496.38;;;4.17;86.60
77770;BME280;66961;51.482;9.160;2023-12-22T03:11:03;97487.63;;;4.10;87.58
77770;BME280;66961;51.482;9.160;2023-12-22T03:13:28;97502.19;;;4.27;85.30
77770;BME280;66961;51.482;9.160;2023-12-22T03:15:53;97488.97;;;4.20;86.62
77770;BME280;66961;51.482;9.160;2023-12-22T03:18:19;97454.00;;;4.28;84.15
77770;BME280;66961;51.482;9.160;2023-12-22T03:20:44;97499.94;;;4.24;85.79
77770;BME280;66961;51.482;9.160;2023-12-22T03:23:09;97495.69;;;4.23;84.72
77770;BME280;66961;51.482;9.160;2023-12-22T03:25:34;97503.00;;;4.27;84.32
77770;BME280;66961;51.482;9.160;2023-12-22T03:28:00;97506.28;;;4.29;83.35
77770;BME280;66961;51.482;9.160;2023-12-22T03:30:25;97508.97;;;4.21;85.48
77770;BME280;66961;51.482;9.160;2023-12-22T03:32:50;97622.00;;;4.26;83.96
77770;BME280;66961;51.482;9.160;2023-12-22T03:35:15;97501.22;;;4.28;83.12
77770;BME280;66961;51.482;9.160;2023-12-22T03:37:41;97524.47;;;4.31;81.95
77770;BME280;66961;51.482;9.160;2023-12-22T03:40:07;97514.69;;;4.25;81.36
77770;BME280;66961;51.482;9.160;2023-12-22T03:42:32;97532.09;;;4.18;82.76
77770;BME280;66961;51.482;9.160;2023-12-22T03:44:57;97516.38;;;4.18;82.25
77770;BME280;66961;51.482;9.160;2023-12-22T03:47:22;97496.38;;;4.17;82.54
77770;BME280;66961;51.482;9.160;2023-12-22T03:49:48;97533.47;;;4.14;83.28
77770;BME280;66961;51.482;9.160;2023-12-22T03:52:13;97523.72;;;4.22;83.18
77770;BME280;66961;51.482;9.160;2023-12-22T03:54:38;97537.16;;;4.19;84.38
77770;BME280;66961;51.482;9.160;2023-12-22T03:57:04;97523.16;;;4.12;85.24
77770;BME280;66961;51.482;9.160;2023-12-22T03:59:29;97537.09;;;4.13;86.21
77770;BME280;66961;51.482;9.160;2023-12-22T04:01:54;97532.25;;;4.02;90.33
77770;BME280;66961;51.482;9.160;2023-12-22T04:04:20;97535.56;;;3.73;94.76
77770;BME280;66961;51.482;9.160;2023-12-22T04:06:45;97514.09;;;3.54;97.29
77770;BME280;66961;51.482;9.160;2023-12-22T04:09:10;97494.53;;;3.42;98.28
77770;BME280;66961;51.482;9.160;2023-12-22T04:11:36;97513.94;;;3.56;98.17
77770;BME280;66961;51.482;9.160;2023-12-22T04:14:01;97498.25;;;3.48;98.46
77770;BME280;66961;51.482;9.160;2023-12-22T04:16:26;97504.97;;;3.50;100.00
77770;BME280;66961;51.482;9.160;2023-12-22T04:18:51;97499.03;;;3.56;98.56
77770;BME280;66961;51.482;9.160;2023-12-22T04:21:17;97509.00;;;3.61;97.96
77770;BME280;66961;51.482;9.160;2023-12-22T04:23:42;97532.84;;;3.89;95.23
77770;BME280;66961;51.482;9.160;2023-12-22T04:26:07;97534.34;;;3.83;94.90
77770;BME280;66961;51.482;9.160;2023-12-22T04:28:33;97510.19;;;3.73;97.13
77770;BME280;66961;51.482;9.160;2023-12-22T04:30:58;97517.50;;;3.63;98.22
77770;BME280;66961;51.482;9.160;2023-12-22T04:33:23;97520.84;;;3.72;96.00
77770;BME280;66961;51.482;9.160;2023-12-22T04:35:48;97520.53;;;3.66;94.47
77770;BME280;66961;51.482;9.160;2023-12-22T04:38:14;97513.97;;;3.71;93.79
77770;BME280;66961;51.482;9.160;2023-12-22T04:40:39;97552.75;;;3.75;93.11
77770;BME280;66961;51.482;9.160;2023-12-22T04:43:04;97560.81;;;3.65;92.91
77770;BME280;66961;51.482;9.160;2023-12-22T04:45:30;97539.59;;;3.60;93.41
77770;BME280;66961;51.482;9.160;2023-12-22T04:47:55;97537.25;;;3.65;92.65
77770;BME280;66961;51.482;9.160;2023-12-22T04:50:20;97549.31;;;3.75;92.02
77770;BME280;66961;51.482;9.160;2023-12-22T04:52:45;97564.09;;;3.67;93.17
77770;BME280;66961;51.482;9.160;2023-12-22T04:55:11;97573.31;;;3.63;93.04
77770;BME280;66961;51.482;9.160;2023-12-22T04:57:36;97544.59;;;3.70;91.03
77770;BME280;66961;51.482;9.160;2023-12-22T05:00:02;97545.06;;;3.74;90.51
77770;BME280;66961;51.482;9.160;2023-12-22T05:02:28;97568.81;;;3.72;90.53
77770;BME280;66961;51.482;9.160;2023-12-22T05:04:53;97551.06;;;3.59;92.02
77770;BME280;66961;51.482;9.160;2023-12-22T05:07:18;97540.34;;;3.69;90.88
77770;BME280;66961;51.482;9.160;2023-12-22T05:09:44;97566.47;;;3.54;93.06
77770;BME280;66961;51.482;9.160;2023-12-22T05:12:09;97542.78;;;3.48;94.15
77770;BME280;66961;51.482;9.160;2023-12-22T05:14:35;97551.31;;;3.42;95.04
77770;BME280;66961;51.482;9.160;2023-12-22T05:17:00;97556.72;;;3.40;95.77
77770;BME280;66961;51.482;9.160;2023-12-22T05:19:25;97553.66;;;3.28;98.50
77770;BME280;66961;51.482;9.160;2023-12-22T05:21:51;97535.69;;;3.25;99.56
77770;BME280;66961;51.482;9.160;2023-12-22T05:24:16;97547.19;;;3.16;100.00
77770;BME280;66961;51.482;9.160;2023-12-22T05:26:41;97576.38;;;3.05;100.00
77770;BME280;66961;51.482;9.160;2023-12-22T05:29:06;97563.94;;;3.07;100.00
77770;BME280;66961;51.482;9.160;2023-12-22T05:31:32;97590.56;;;3.11;100.00
77770;BME280;66961;51.482;9.160;2023-12-22T05:33:57;97584.69;;;3.09;100.00
77770;BME280;66961;51.482;9.160;2023-12-22T05:36:22;97584.63;;;3.25;98.93
77770;BME280;66961;51.482;9.160;2023-12-22T05:38:48;97575.41;;;3.37;95.81
77770;BME280;66961;51.482;9.160;2023-12-22T05:41:13;97573.16;;;3.26;97.89
77770;BME280;66961;51.482;9.160;2023-12-22T05:43:38;97603.13;;;3.15;100.00
77770;BME280;66961;51.482;9.160;2023-12-22T05:46:04;97588.94;;;3.10;100.00
77770;BME280;66961;51.482;9.160;2023-12-22T05:48:29;97610.16;;;3.15;100.00
77770;BME280;66961;51.482;9.160;2023-12-22T05:50:57;97591.84;;;3.15;100.00
77770;BME280;66961;51.482;9.160;2023-12-22T05:53:23;97600.06;;;3.12;100.00
77770;BME280;66961;51.482;9.160;2023-12-22T05:55:48;97619.16;;;3.12;100.00
77770;BME280;66961;51.482;9.160;2023-12-22T05:58:14;97627.81;;;3.21;100.00
77770;BME280;66961;51.482;9.160;2023-12-22T06:00:39;97626.34;;;3.18;100.00
77770;BME280;66961;51.482;9.160;2023-12-22T06:03:04;97627.31;;;3.25;100.00
77770;BME280;66961;51.482;9.160;2023-12-22T06:05:30;97610.16;;;3.23;99.58
77770;BME280;66961;51.482;9.160;2023-12-22T06:07:55;97617.00;;;3.32;99.42
77770;BME280;66961;51.482;9.160;2023-12-22T06:10:21;97595.53;;;3.37;96.40
77770;BME280;66961;51.482;9.160;2023-12-22T06:12:46;97613.22;;;3.35;97.32
77770;BME280;66961;51.482;9.160;2023-12-22T06:15:11;97603.25;;;3.30;98.03
77770;BME280;66961;51.482;9.160;2023-12-22T06:17:37;97608.56;;;3.53;95.34
77770;BME280;66961;51.482;9.160;2023-12-22T06:20:02;97623.69;;;3.65;94.25
77770;BME280;66961;51.482;9.160;2023-12-22T06:22:27;97602.22;;;3.70;93.26
77770;BME280;66961;51.482;9.160;2023-12-22T06:24:53;97610.66;;;3.57;94.25
77770;BME280;66961;51.482;9.160;2023-12-22T06:27:18;97617.31;;;3.68;92.83
77770;BME280;66961;51.482;9.160;2023-12-22T06:29:43;97613.25;;;3.88;90.44
77770;BME280;66961;51.482;9.160;2023-12-22T06:32:09;97616.34;;;3.92;88.91
77770;BME280;66961;51.482;9.160;2023-12-22T06:34:34;97616.06;;;3.87;90.51
77770;BME280;66961;51.482;9.160;2023-12-22T06:36:59;97654.81;;;3.99;89.52
77770;BME280;66961;51.482;9.160;2023-12-22T06:39:25;97632.56;;;3.95;87.45
77770;BME280;66961;51.482;9.160;2023-12-22T06:41:50;97638.88;;;4.09;86.92
77770;BME280;66961;51.482;9.160;2023-12-22T06:44:15;97676.69;;;4.15;87.52
77770;BME280;66961;51.482;9.160;2023-12-22T06:46:40;97663.44;;;4.08;88.47
77770;BME280;66961;51.482;9.160;2023-12-22T06:49:06;97662.97;;;4.05;88.89
77770;BME280;66961;51.482;9.160;2023-12-22T06:51:31;97662.13;;;4.12;86.89
77770;BME280;66961;51.482;9.160;2023-12-22T06:53:57;97683.72;;;4.14;87.61
77770;BME280;66961;51.482;9.160;2023-12-22T06:56:24;97682.75;;;4.15;87.46
77770;BME280;66961;51.482;9.160;2023-12-22T06:58:50;97691.34;;;4.24;86.30
77770;BME280;66961;51.482;9.160;2023-12-22T07:01:29;97718.69;;;4.29;86.58
77770;BME280;66961;51.482;9.160;2023-12-22T07:03:55;97711.81;;;4.28;86.36
77770;BME280;66961;51.482;9.160;2023-12-22T07:06:21;97703.81;;;4.22;87.52
77770;BME280;66961;51.482;9.160;2023-12-22T07:11:47;97697.66;;;4.38;84.01
77770;BME280;66961;51.482;9.160;2023-12-22T07:14:13;97728.97;;;4.39;84.12
77770;BME280;66961;51.482;9.160;2023-12-22T07:16:38;97721.78;;;4.33;85.96
77770;BME280;66961;51.482;9.160;2023-12-22T07:19:04;97704.53;;;4.39;83.89
77770;BME280;66961;51.482;9.160;2023-12-22T07:21:30;97693.88;;;4.40;84.24
77770;BME280;66961;51.482;9.160;2023-12-22T07:23:55;97712.59;;;4.37;84.12
77770;BME280;66961;51.482;9.160;2023-12-22T07:26:20;97724.06;;;4.36;84.67
77770;BME280;66961;51.482;9.160;2023-12-22T07:28:46;97741.78;;;4.34;85.41
77770;BME280;66961;51.482;9.160;2023-12-22T07:31:11;97722.25;;;4.37;84.83
77770;BME280;66961;51.482;9.160;2023-12-22T07:33:36;97750.59;;;4.41;85.57
77770;BME280;66961;51.482;9.160;2023-12-22T07:36:01;97717.94;;;4.44;85.38
77770;BME280;66961;51.482;9.160;2023-12-22T07:38:27;97730.25;;;4.43;86.07
77770;BME280;66961;51.482;9.160;2023-12-22T07:40:52;97726.97;;;4.41;85.69
77770;BME280;66961;51.482;9.160;2023-12-22T07:43:18;97717.78;;;4.45;85.83
77770;BME280;66961;51.482;9.160;2023-12-22T07:45:43;97742.50;;;4.51;85.28
77770;BME280;66961;51.482;9.160;2023-12-22T07:48:08;97745.94;;;4.51;85.66
77770;BME280;66961;51.482;9.160;2023-12-22T07:50:34;97733.34;;;4.47;86.70
77770;BME280;66961;51.482;9.160;2023-12-22T07:52:59;97746.31;;;4.40;86.95
77770;BME280;66961;51.482;9.160;2023-12-22T07:55:24;97736.31;;;4.44;86.79
77770;BME280;66961;51.482;9.160;2023-12-22T07:57:50;97741.25;;;4.39;86.94
77770;BME280;66961;51.482;9.160;2023-12-22T08:00:15;97739.09;;;4.42;86.25
77770;BME280;66961;51.482;9.160;2023-12-22T08:02:41;97745.16;;;4.43;86.51
77770;BME280;66961;51.482;9.160;2023-12-22T08:05:06;97747.63;;;4.44;86.53
77770;BME280;66961;51.482;9.160;2023-12-22T08:07:31;97758.28;;;4.43;86.19
77770;BME280;66961;51.482;9.160;2023-12-22T08:09:57;97740.47;;;4.61;84.03
77770;BME280;66961;51.482;9.160;2023-12-22T08:12:22;97753.75;;;4.59;84.65
77770;BME280;66961;51.482;9.160;2023-12-22T08:14:48;97735.41;;;4.59;84.27
77770;BME280;66961;51.482;9.160;2023-12-22T08:17:13;97739.47;;;4.62;84.52
77770;BME280;66961;51.482;9.160;2023-12-22T08:19:39;97758.13;;;4.67;83.82
77770;BME280;66961;51.482;9.160;2023-12-22T08:22:04;97768.25;;;4.70;83.73
77770;BME280;66961;51.482;9.160;2023-12-22T08:24:30;97762.66;;;4.73;84.29
77770;BME280;66961;51.482;9.160;2023-12-22T08:26:55;97760.34;;;4.78;83.97
77770;BME280;66961;51.482;9.160;2023-12-22T08:29:20;97758.34;;;4.80;84.36
77770;BME280;66961;51.482;9.160;2023-12-22T08:31:46;97763.59;;;4.80;85.14
77770;BME280;66961;51.482;9.160;2023-12-22T08:34:11;97763.78;;;4.79;85.39
77770;BME280;66961;51.482;9.160;2023-12-22T08:36:36;97763.78;;;4.79;85.67
77770;BME280;66961;51.482;9.160;2023-12-22T08:39:02;97748.16;;;4.85;85.35
77770;BME280;66961;51.482;9.160;2023-12-22T08:41:27;97745.47;;;4.93;83.73
77770;BME280;66961;51.482;9.160;2023-12-22T08:43:52;97753.84;;;4.89;84.85
77770;BME280;66961;51.482;9.160;2023-12-22T08:46:18;97753.84;;;4.89;84.77
77770;BME280;66961;51.482;9.160;2023-12-22T08:48:43;97772.88;;;4.91;84.03
77770;BME280;66961;51.482;9.160;2023-12-22T08:51:09;97747.72;;;4.96;83.52
77770;BME280;66961;51.482;9.160;2023-12-22T08:53:34;97778.78;;;4.93;85.23
77770;BME280;66961;51.482;9.160;2023-12-22T08:56:00;97784.13;;;4.99;84.10
77770;BME280;66961;51.482;9.160;2023-12-22T08:58:26;97765.19;;;4.89;83.95
77770;BME280;66961;51.482;9.160;2023-12-22T09:00:51;97760.84;;;4.96;83.20
77770;BME280;66961;51.482;9.160;2023-12-22T09:03:17;97762.19;;;4.92;83.91
77770;BME280;66961;51.482;9.160;2023-12-22T09:05:42;97767.16;;;4.87;83.97
77770;BME280;66961;51.482;9.160;2023-12-22T09:08:07;97788.97;;;4.88;83.67
77770;BME280;66961;51.482;9.160;2023-12-22T09:10:32;97797.19;;;4.85;84.03
77770;BME280;66961;51.482;9.160;2023-12-22T09:12:58;97803.03;;;4.72;85.80
77770;BME280;66961;51.482;9.160;2023-12-22T09:15:23;97807.06;;;4.60;87.21
77770;BME280;66961;51.482;9.160;2023-12-22T09:17:49;97800.06;;;4.44;88.86
77770;BME280;66961;51.482;9.160;2023-12-22T09:20:14;97801.78;;;4.29;91.43
77770;BME280;66961;51.482;9.160;2023-12-22T09:22:40;97817.13;;;4.09;93.56
77770;BME280;66961;51.482;9.160;2023-12-22T09:25:05;97844.69;;;3.97;95.10
77770;BME280;66961;51.482;9.160;2023-12-22T09:27:30;97845.19;;;3.84;97.41
77770;BME280;66961;51.482;9.160;2023-12-22T09:29:56;97834.91;;;3.66;99.06
77770;BME280;66961;51.482;9.160;2023-12-22T09:32:21;97838.38;;;3.59;99.62
77770;BME280;66961;51.482;9.160;2023-12-22T09:34:46;97840.34;;;3.49;100.00
77770;BME280;66961;51.482;9.160;2023-12-22T09:37:12;97832.66;;;3.47;100.00
77770;BME280;66961;51.482;9.160;2023-12-22T09:39:37;97816.13;;;3.47;100.00
77770;BME280;66961;51.482;9.160;2023-12-22T09:42:03;97809.09;;;3.47;100.00
77770;BME280;66961;51.482;9.160;2023-12-22T09:44:31;97808.44;;;3.53;100.00
77770;BME280;66961;51.482;9.160;2023-12-22T09:46:58;97796.81;;;3.56;100.00
77770;BME280;66961;51.482;9.160;2023-12-22T09:49:24;97788.63;;;3.59;100.00
77770;BME280;66961;51.482;9.160;2023-12-22T09:51:50;97792.81;;;3.68;100.00
77770;BME280;66961;51.482;9.160;2023-12-22T09:54:16;97802.31;;;3.77;100.00
77770;BME280;66961;51.482;9.160;2023-12-22T09:56:42;97804.25;;;3.83;100.00
77770;BME280;66961;51.482;9.160;2023-12-22T09:59:12;97804.56;;;3.88;100.00
77770;BME280;66961;51.482;9.160;2023-12-22T10:01:40;97778.69;;;3.93;100.00
77770;BME280;66961;51.482;9.160;2023-12-22T10:04:07;97769.31;;;3.99;100.00
77770;BME280;66961;51.482;9.160;2023-12-22T10:06:33;97778.63;;;4.10;100.00
77770;BME280;66961;51.482;9.160;2023-12-22T10:08:58;97776.09;;;4.16;100.00
77770;BME280;66961;51.482;9.160;2023-12-22T10:11:24;97802.13;;;4.26;100.00
77770;BME280;66961;51.482;9.160;2023-12-22T10:13:51;97792.59;;;4.33;100.00
77770;BME280;66961;51.482;9.160;2023-12-22T10:16:17;97788.47;;;4.39;100.00
77770;BME280;66961;51.482;9.160;2023-12-22T10:18:43;97787.59;;;4.46;100.00
77770;BME280;66961;51.482;9.160;2023-12-22T10:21:08;97781.84;;;4.51;100.00
77770;BME280;66961;51.482;9.160;2023-12-22T10:23:34;97778.03;;;4.61;100.00
77770;BME280;66961;51.482;9.160;2023-12-22T10:25:59;97768.81;;;4.65;98.83
77770;BME280;66961;51.482;9.160;2023-12-22T10:28:27;97749.53;;;4.73;97.66
77770;BME280;66961;51.482;9.160;2023-12-22T10:30:53;97747.22;;;4.78;97.72
77770;BME280;66961;51.482;9.160;2023-12-22T10:33:18;97750.78;;;4.85;98.04
77770;BME280;66961;51.482;9.160;2023-12-22T10:35:44;97740.75;;;4.89;97.87
77770;BME280;66961;51.482;9.160;2023-12-22T10:38:09;97746.09;;;4.95;97.49
77770;BME280;66961;51.482;9.160;2023-12-22T10:40:37;97735.72;;;5.02;94.99
77770;BME280;66961;51.482;9.160;2023-12-22T10:43:02;97743.06;;;5.07;96.64
77770;BME280;66961;51.482;9.160;2023-12-22T10:45:28;97743.34;;;5.12;94.96
77770;BME280;66961;51.482;9.160;2023-12-22T10:47:54;97729.50;;;5.18;94.20
77770;BME280;66961;51.482;9.160;2023-12-22T10:50:20;97734.75;;;5.18;93.40
77770;BME280;66961;51.482;9.160;2023-12-22T10:52:49;97731.38;;;5.24;93.78
77770;BME280;66961;51.482;9.160;2023-12-22T10:55:15;97740.44;;;5.21;92.52
77770;BME280;66961;51.482;9.160;2023-12-22T10:57:40;97729.50;;;5.18;92.72
77770;BME280;66961;51.482;9.160;2023-12-22T11:00:06;97727.13;;;5.23;91.56
77770;BME280;66961;51.482;9.160;2023-12-22T11:02:32;97740.09;;;5.24;91.50
77770;BME280;66961;51.482;9.160;2023-12-22T11:05:05;97725.50;;;5.22;91.81
77770;BME280;66961;51.482;9.160;2023-12-22T11:07:35;97725.97;;;5.25;91.40
77770;BME280;66961;51.482;9.160;2023-12-22T11:10:05;97732.38;;;5.23;92.14
77770;BME280;66961;51.482;9.160;2023-12-22T11:12:38;97726.69;;;5.19;92.50
77770;BME280;66961;51.482;9.160;2023-12-22T11:15:04;97713.28;;;5.14;92.06
77770;BME280;66961;51.482;9.160;2023-12-22T11:17:30;97719.06;;;5.10;92.35
77770;BME280;66961;51.482;9.160;2023-12-22T11:19:57;97703.84;;;5.05;93.33
77770;BME280;66961;51.482;9.160;2023-12-22T11:22:24;97699.66;;;4.96;93.99
77770;BME280;66961;51.482;9.160;2023-12-22T11:24:49;97704.09;;;4.95;94.66
77770;BME280;66961;51.482;9.160;2023-12-22T11:27:19;97707.25;;;4.91;96.51
77770;BME280;66961;51.482;9.160;2023-12-22T11:29:49;97712.75;;;4.81;98.38
77770;BME280;66961;51.482;9.160;2023-12-22T11:32:15;97708.84;;;4.77;98.24
77770;BME280;66961;51.482;9.160;2023-12-22T11:34:43;97706.91;;;4.71;99.63
77770;BME280;66961;51.482;9.160;2023-12-22T11:37:09;97690.91;;;4.66;100.00
77770;BME280;66961;51.482;9.160;2023-12-22T11:39:38;97701.13;;;4.61;100.00
77770;BME280;66961;51.482;9.160;2023-12-22T11:42:04;97695.88;;;4.61;100.00
77770;BME280;66961;51.482;9.160;2023-12-22T11:44:31;97702.56;;;4.63;100.00
77770;BME280;66961;51.482;9.160;2023-12-22T11:47:03;97693.25;;;4.61;100.00
77770;BME280;66961;51.482;9.160;2023-12-22T11:49:34;97698.41;;;4.69;100.00
77770;BME280;66961;51.482;9.160;2023-12-22T11:52:15;97695.97;;;4.68;100.00
77770;BME280;66961;51.482;9.160;2023-12-22T11:54:45;97693.25;;;4.76;100.00
77770;BME280;66961;51.482;9.160;2023-12-22T11:57:32;97672.38;;;4.82;100.00
77770;BME280;66961;51.482;9.160;2023-12-22T12:00:08;97682.88;;;4.82;100.00
77770;BME280;66961;51.482;9.160;2023-12-22T12:02:35;97674.13;;;4.90;100.00
77770;BME280;66961;51.482;9.160;2023-12-22T12:05:01;97655.09;;;4.88;100.00
77770;BME280;66961;51.482;9.160;2023-12-22T12:07:40;97653.00;;;4.83;100.00
77770;BME280;66961;51.482;9.160;2023-12-22T12:10:12;97643.78;;;4.87;100.00
77770;BME280;66961;51.482;9.160;2023-12-22T12:12:38;97668.59;;;4.85;98.20
77770;BME280;66961;51.482;9.160;2023-12-22T12:15:13;97660.50;;;4.72;100.00
77770;BME280;66961;51.482;9.160;2023-12-22T12:17:42;97659.31;;;4.74;100.00
77770;BME280;66961;51.482;9.160;2023-12-22T12:20:09;97665.75;;;4.72;99.64
77770;BME280;66961;51.482;9.160;2023-12-22T12:22:35;97670.34;;;4.70;99.89
77770;BME280;66961;51.482;9.160;2023-12-22T12:25:01;97672.44;;;4.74;98.19
77770;BME280;66961;51.482;9.160;2023-12-22T12:27:26;97657.06;;;4.71;98.79
77770;BME280;66961;51.482;9.160;2023-12-22T12:29:52;97666.91;;;4.69;98.89
77770;BME280;66961;51.482;9.160;2023-12-22T12:32:18;97654.44;;;4.71;98.58
77770;BME280;66961;51.482;9.160;2023-12-22T12:34:43;97645.91;;;4.69;99.54
77770;BME280;66961;51.482;9.160;2023-12-22T12:37:09;97645.91;;;4.69;99.76
77770;BME280;66961;51.482;9.160;2023-12-22T12:39:34;97659.03;;;4.69;100.00
77770;BME280;66961;51.482;9.160;2023-12-22T12:42:00;97656.88;;;4.73;100.00
77770;BME280;66961;51.482;9.160;2023-12-22T12:44:26;97648.53;;;4.69;100.00
77770;BME280;66961;51.482;9.160;2023-12-22T12:46:52;97646.03;;;4.76;99.51
77770;BME280;66961;51.482;9.160;2023-12-22T12:49:18;97653.63;;;4.71;100.00
77770;BME280;66961;51.482;9.160;2023-12-22T12:51:48;97644.94;;;4.70;100.00
77770;BME280;66961;51.482;9.160;2023-12-22T12:54:14;97641.66;;;4.68;100.00
77770;BME280;66961;51.482;9.160;2023-12-22T12:56:40;97626.47;;;4.63;100.00
77770;BME280;66961;51.482;9.160;2023-12-22T12:59:09;97645.03;;;4.62;100.00
77770;BME280;66961;51.482;9.160;2023-12-22T13:04:04;97639.84;;;4.54;100.00
77770;BME280;66961;51.482;9.160;2023-12-22T13:06:29;97640.47;;;4.56;100.00
77770;BME280;66961;51.482;9.160;2023-12-22T13:08:55;97641.94;;;4.58;100.00
77770;BME280;66961;51.482;9.160;2023-12-22T13:11:30;97623.47;;;4.52;100.00